Time;durP1;ratioP1;P1;durP2;ratioP2;P2;SDS_P1;SDS_P2;PMS_P1;PMS_P2;Temp;Humidity;BMP_temperature;BMP_pressure;BME280_temperature;BME280_humidity;BME280_pressure;Samples;Min_cycle;Max_cycle;Signal;HPM_P1;HPM_P2
2023/06/18 00:01:23;;;;;;;6.93;4.90;;;16.00;97.30;;;;;;4947638;28;20206;-86
2023/06/18 00:03:48;;;;;;;4.77;4.47;;;16.00;97.30;;;;;;4943937;29;20491;-80
2023/06/18 00:06:14;;;;;;;7.20;4.70;;;16.00;97.30;;;;;;4946446;29;20556;-82
2023/06/18 00:08:39;;;;;;;7.33;4.37;;;15.90;97.30;;;;;;4943081;28;20234;-80
2023/06/18 00:11:05;;;;;;;22.33;5.00;;;15.90;97.30;;;;;;4946060;29;20258;-82
2023/06/18 00:13:30;;;;;;;5.70;4.53;;;15.90;97.30;;;;;;4942779;29;20187;-81
2023/06/18 00:15:58;;;;;;;5.17;3.47;;;15.90;97.30;;;;;;4951608;29;20278;-82
2023/06/18 00:18:24;;;;;;;6.80;4.10;;;15.80;97.30;;;;;;4939741;28;20428;-85
2023/06/18 00:20:49;;;;;;;7.10;6.47;;;15.80;97.30;;;;;;4947428;29;20453;-82
2023/06/18 00:23:15;;;;;;;11.13;4.70;;;15.70;97.30;;;;;;4948522;28;20246;-80
2023/06/18 00:25:40;;;;;;;7.20;5.73;;;15.70;97.30;;;;;;4945697;28;20771;-83
2023/06/18 00:28:08;;;;;;;6.10;4.63;;;15.70;97.30;;;;;;4944557;29;20195;-81
2023/06/18 00:30:33;;;;;;;7.20;5.27;;;15.60;97.30;;;;;;4941911;28;20188;-83
2023/06/18 00:32:59;;;;;;;9.20;5.00;;;15.60;97.30;;;;;;4946363;28;20959;-82
2023/06/18 00:35:25;;;;;;;9.83;5.90;;;15.60;97.30;;;;;;4949492;28;20183;-82
2023/06/18 00:37:51;;;;;;;6.83;5.27;;;15.60;97.30;;;;;;4947445;28;20501;-83
2023/06/18 00:40:17;;;;;;;12.37;6.10;;;15.60;97.30;;;;;;4947988;28;20262;-86
2023/06/18 00:42:43;;;;;;;7.47;4.57;;;15.60;97.30;;;;;;4949551;28;20549;-84
2023/06/18 00:45:09;;;;;;;9.80;5.10;;;15.60;97.30;;;;;;4942223;29;20193;-85
2023/06/18 00:47:44;;;;;;;8.03;4.50;;;15.50;97.30;;;;;;4944311;29;20463;-81
2023/06/18 00:50:12;;;;;;;7.60;5.20;;;15.50;97.30;;;;;;4944042;28;20797;-81
2023/06/18 00:52:44;;;;;;;5.33;3.80;;;15.50;97.30;;;;;;4942184;29;20442;-85
2023/06/18 00:55:12;;;;;;;16.73;6.70;;;15.50;97.30;;;;;;4938324;29;20445;-82
2023/06/18 00:57:37;;;;;;;15.03;6.50;;;15.50;97.30;;;;;;4945911;28;20497;-81
2023/06/18 01:00:12;;;;;;;6.37;4.37;;;15.40;97.30;;;;;;4943953;29;20462;-82
2023/06/18 01:02:45;;;;;;;9.47;5.00;;;15.40;97.30;;;;;;4944119;29;20199;-83
2023/06/18 01:05:12;;;;;;;6.70;5.00;;;15.40;97.30;;;;;;4942013;29;20514;-88
2023/06/18 01:07:39;;;;;;;5.80;4.43;;;15.40;97.30;;;;;;4946997;28;20728;-82
2023/06/18 01:10:05;;;;;;;7.70;5.13;;;15.30;97.30;;;;;;4945536;29;20972;-83
2023/06/18 01:12:31;;;;;;;8.47;3.60;;;15.30;97.30;;;;;;4947144;28;20502;-83
2023/06/18 01:14:57;;;;;;;5.60;4.90;;;15.20;97.30;;;;;;4942298;29;20961;-81
2023/06/18 01:17:29;;;;;;;6.87;6.27;;;15.20;97.30;;;;;;4947876;28;20206;-82
2023/06/18 01:19:58;;;;;;;7.07;4.20;;;15.20;97.30;;;;;;4942095;28;20449;-80
2023/06/18 01:22:37;;;;;;;6.13;3.03;;;15.20;97.30;;;;;;4941645;29;20487;-83
2023/06/18 01:25:05;;;;;;;6.10;4.93;;;15.20;97.30;;;;;;4943709;28;20434;-85
2023/06/18 01:27:40;;;;;;;5.80;5.50;;;15.30;97.30;;;;;;4948798;28;20972;-83
2023/06/18 01:30:07;;;;;;;8.50;5.33;;;15.20;97.30;;;;;;4940499;29;20443;-87
2023/06/18 01:32:32;;;;;;;7.73;5.23;;;15.30;97.30;;;;;;4946093;28;20424;-81
2023/06/18 01:34:59;;;;;;;5.53;4.53;;;15.30;97.30;;;;;;4945024;29;20438;-82
2023/06/18 01:37:58;;;;;;;6.70;4.23;;;15.20;97.30;;;;;;4947183;28;20237;-83
2023/06/18 01:40:47;;;;;;;8.27;3.83;;;15.20;97.30;;;;;;4949277;28;20522;-86
2023/06/18 01:43:31;;;;;;;3.30;3.00;;;15.20;97.30;;;;;;4951047;28;20559;-83
2023/06/18 01:46:09;;;;;;;3.90;3.57;;;15.10;97.30;;;;;;4948045;29;20415;-84
2023/06/18 01:48:37;;;;;;;5.30;3.57;;;15.00;97.30;;;;;;4947304;28;20453;-85
2023/06/18 01:51:04;;;;;;;11.10;5.33;;;15.00;97.30;;;;;;4946956;28;20415;-85
2023/06/18 01:53:33;;;;;;;7.00;3.80;;;14.90;97.30;;;;;;4947363;29;20419;-80
2023/06/18 01:56:00;;;;;;;6.10;5.53;;;14.80;97.30;;;;;;4952575;28;20415;-83
2023/06/18 01:58:26;;;;;;;4.20;3.77;;;14.80;97.30;;;;;;4953926;29;20449;-84
2023/06/18 02:00:52;;;;;;;5.80;4.23;;;14.80;97.30;;;;;;4957655;28;20509;-84
2023/06/18 02:03:18;;;;;;;10.07;6.53;;;14.80;97.30;;;;;;4949591;29;20210;-82
2023/06/18 02:05:44;;;;;;;8.10;5.57;;;14.70;97.30;;;;;;4945661;29;20266;-80
2023/06/18 02:08:10;;;;;;;8.03;4.93;;;14.70;97.30;;;;;;4956116;29;20478;-82
2023/06/18 02:10:35;;;;;;;5.80;4.63;;;14.60;97.30;;;;;;4955798;29;20430;-83
2023/06/18 02:13:01;;;;;;;7.53;4.50;;;14.60;97.30;;;;;;4955843;29;20241;-80
2023/06/18 02:15:26;;;;;;;8.53;5.00;;;14.60;97.30;;;;;;4955141;29;20190;-86
2023/06/18 02:17:52;;;;;;;3.70;3.57;;;14.60;97.30;;;;;;4952887;28;20209;-85
2023/06/18 02:20:17;;;;;;;7.53;4.20;;;14.60;97.30;;;;;;4955177;29;20555;-83
2023/06/18 02:22:43;;;;;;;6.70;4.37;;;14.60;97.30;;;;;;4954851;29;20261;-82
2023/06/18 02:25:09;;;;;;;3.57;3.27;;;14.50;97.30;;;;;;4955894;28;20356;-80
2023/06/18 02:27:34;;;;;;;7.43;5.67;;;14.50;97.30;;;;;;4954067;28;20223;-83
2023/06/18 02:30:01;;;;;;;6.50;4.30;;;14.50;97.30;;;;;;4955221;29;20178;-83
2023/06/18 02:32:28;;;;;;;10.77;4.10;;;14.50;97.30;;;;;;4953737;29;20209;-83
2023/06/18 02:34:55;;;;;;;7.00;3.80;;;14.50;97.30;;;;;;4956737;28;20441;-80
2023/06/18 02:37:20;;;;;;;6.60;4.47;;;14.50;97.30;;;;;;4954269;28;20864;-85
2023/06/18 02:39:46;;;;;;;12.63;3.27;;;14.50;97.30;;;;;;4955548;29;20418;-83
2023/06/18 02:42:11;;;;;;;5.60;4.93;;;14.50;97.30;;;;;;4955866;28;20262;-80
2023/06/18 02:44:39;;;;;;;5.17;3.80;;;14.50;97.30;;;;;;4952684;29;20179;-84
2023/06/18 02:47:05;;;;;;;7.40;5.13;;;14.50;97.30;;;;;;4956234;28;20222;-84
2023/06/18 02:49:31;;;;;;;6.50;2.83;;;14.50;97.30;;;;;;4953542;29;20477;-85
2023/06/18 02:51:56;;;;;;;9.40;4.70;;;14.50;97.30;;;;;;4957151;29;20423;-84
2023/06/18 02:54:22;;;;;;;4.60;4.30;;;14.40;97.30;;;;;;4956136;29;20179;-87
2023/06/18 02:56:47;;;;;;;5.33;3.30;;;14.40;97.30;;;;;;4954152;29;20556;-85
2023/06/18 02:59:13;;;;;;;3.47;3.27;;;14.30;97.30;;;;;;4967950;28;20190;-81
2023/06/18 03:01:39;;;;;;;90.77;8.70;;;14.30;97.30;;;;;;4958621;29;20261;-84
2023/06/18 03:04:04;;;;;;;4.40;3.67;;;14.20;97.30;;;;;;4954487;29;20269;-85
2023/06/18 03:06:30;;;;;;;15.83;5.47;;;14.20;97.30;;;;;;4953372;28;20446;-83
2023/06/18 03:08:55;;;;;;;7.93;4.60;;;14.20;97.30;;;;;;4949634;29;20215;-80
2023/06/18 03:11:22;;;;;;;16.47;3.97;;;14.20;97.30;;;;;;4955639;29;20183;-85
2023/06/18 03:13:49;;;;;;;6.80;5.03;;;14.10;97.30;;;;;;4947938;29;20594;-80
2023/06/18 03:16:15;;;;;;;9.60;5.73;;;14.10;97.30;;;;;;4954637;29;20426;-86
2023/06/18 03:18:41;;;;;;;5.80;4.70;;;14.10;97.30;;;;;;4954608;29;21061;-80
2023/06/18 03:21:06;;;;;;;3.87;3.57;;;14.10;97.30;;;;;;4954513;29;20407;-83
2023/06/18 03:23:32;;;;;;;8.10;5.40;;;14.10;97.30;;;;;;4955174;29;20222;-83
2023/06/18 03:25:57;;;;;;;3.73;3.53;;;14.10;97.30;;;;;;4954397;28;20241;-83
2023/06/18 03:28:24;;;;;;;10.97;5.10;;;14.10;97.30;;;;;;4954050;29;20285;-86
2023/06/18 03:30:49;;;;;;;4.80;3.90;;;14.10;97.30;;;;;;4952530;29;20222;-82
2023/06/18 03:33:17;;;;;;;8.60;4.73;;;14.10;97.30;;;;;;4954075;29;20438;-85
2023/06/18 03:35:46;;;;;;;3.23;3.03;;;14.10;97.30;;;;;;4962987;29;20268;-83
2023/06/18 03:38:11;;;;;;;6.43;4.70;;;14.00;97.30;;;;;;4965376;28;20454;-83
2023/06/18 03:40:37;;;;;;;8.93;4.13;;;14.00;97.30;;;;;;4964194;28;20423;-88
2023/06/18 03:43:02;;;;;;;4.40;3.37;;;14.00;97.30;;;;;;4966704;28;20203;-84
2023/06/18 03:45:28;;;;;;;12.33;7.27;;;14.00;97.30;;;;;;4964279;29;20192;-86
2023/06/18 03:47:53;;;;;;;8.77;4.10;;;14.00;97.30;;;;;;4963879;28;20223;-86
2023/06/18 03:50:19;;;;;;;6.00;5.10;;;14.10;97.30;;;;;;4965224;28;20180;-82
2023/06/18 03:52:45;;;;;;;3.70;3.50;;;14.10;97.30;;;;;;4964558;28;20187;-83
2023/06/18 03:55:10;;;;;;;4.50;4.20;;;14.10;97.30;;;;;;4957357;29;20567;-83
2023/06/18 03:57:36;;;;;;;7.70;6.50;;;14.10;97.30;;;;;;4952764;28;20206;-85
2023/06/18 04:00:01;;;;;;;6.03;4.57;;;14.20;97.30;;;;;;4954080;28;20191;-86
2023/06/18 04:02:27;;;;;;;7.17;4.83;;;14.20;97.30;;;;;;4952720;29;20222;-83
2023/06/18 04:04:52;;;;;;;4.40;4.13;;;14.20;97.30;;;;;;4952735;28;20277;-83
2023/06/18 04:07:18;;;;;;;3.90;3.70;;;14.30;97.30;;;;;;4950942;28;20673;-81
2023/06/18 04:09:43;;;;;;;8.10;3.37;;;14.30;97.30;;;;;;4952526;29;21226;-80
2023/06/18 04:12:09;;;;;;;6.27;4.67;;;14.30;97.30;;;;;;4953113;28;20187;-84
2023/06/18 04:14:35;;;;;;;54.30;5.67;;;14.30;97.30;;;;;;4951047;29;20194;-86
2023/06/18 04:17:01;;;;;;;12.90;5.70;;;14.30;97.30;;;;;;4952429;29;20459;-84
2023/06/18 04:19:26;;;;;;;5.93;4.63;;;14.40;97.30;;;;;;4951248;28;20190;-85
2023/06/18 04:21:52;;;;;;;11.40;6.20;;;14.40;97.30;;;;;;4952277;29;20237;-85
2023/06/18 04:24:17;;;;;;;11.00;6.00;;;14.40;97.30;;;;;;4952809;29;20187;-83
2023/06/18 04:26:44;;;;;;;7.07;4.77;;;14.50;97.30;;;;;;4946173;28;20574;-83
2023/06/18 04:29:09;;;;;;;5.17;4.80;;;14.50;97.30;;;;;;4952369;29;20423;-86
2023/06/18 04:31:35;;;;;;;4.80;4.50;;;14.60;97.30;;;;;;4954141;28;20217;-80
2023/06/18 04:34:01;;;;;;;7.30;5.27;;;14.60;97.30;;;;;;4954172;29;20183;-83
2023/06/18 04:36:26;;;;;;;8.50;6.30;;;14.70;97.30;;;;;;4954255;29;20242;-84
2023/06/18 04:38:52;;;;;;;8.23;4.07;;;14.70;97.30;;;;;;4950394;28;20601;-85
2023/06/18 04:41:17;;;;;;;12.37;8.00;;;14.80;97.30;;;;;;4948995;29;20415;-80
2023/06/18 04:43:43;;;;;;;13.50;5.43;;;14.80;97.30;;;;;;4952764;29;20302;-83
2023/06/18 04:46:09;;;;;;;8.80;5.03;;;14.90;97.30;;;;;;4952922;28;20265;-83
2023/06/18 04:48:34;;;;;;;6.80;5.63;;;14.90;97.30;;;;;;4945853;28;20502;-82
2023/06/18 04:51:00;;;;;;;7.23;6.03;;;15.00;97.30;;;;;;4953864;28;20179;-81
2023/06/18 04:53:26;;;;;;;3.43;3.23;;;15.00;97.30;;;;;;4952722;29;20661;-83
2023/06/18 04:55:51;;;;;;;16.00;4.00;;;15.10;97.30;;;;;;4945494;29;20183;-85
2023/06/18 04:58:17;;;;;;;7.17;5.37;;;15.20;97.30;;;;;;4952675;29;20286;-83
2023/06/18 05:00:42;;;;;;;5.10;3.93;;;15.20;97.30;;;;;;4951787;28;20223;-83
2023/06/18 05:03:08;;;;;;;7.37;3.80;;;15.30;97.30;;;;;;4952265;28;20662;-83
2023/06/18 05:05:33;;;;;;;6.90;4.40;;;15.30;97.30;;;;;;4951699;29;20184;-85
2023/06/18 05:07:59;;;;;;;8.20;6.60;;;15.40;97.30;;;;;;4945636;28;20194;-80
2023/06/18 05:10:25;;;;;;;11.30;4.97;;;15.40;97.30;;;;;;4951759;28;20650;-81
2023/06/18 05:12:50;;;;;;;7.33;6.07;;;15.50;97.30;;;;;;4950673;29;20179;-85
2023/06/18 05:15:16;;;;;;;5.60;5.20;;;15.50;97.30;;;;;;4951146;29;20179;-83
2023/06/18 05:17:41;;;;;;;8.07;5.57;;;15.60;97.30;;;;;;4951769;29;20733;-83
2023/06/18 05:20:08;;;;;;;7.70;4.90;;;15.60;97.30;;;;;;4943512;29;20183;-84
2023/06/18 05:22:34;;;;;;;4.80;3.93;;;15.70;97.30;;;;;;4952413;28;20229;-83
2023/06/18 05:24:59;;;;;;;5.43;4.10;;;15.70;97.30;;;;;;4950877;28;20446;-83
2023/06/18 05:27:28;;;;;;;10.13;6.93;;;15.80;97.30;;;;;;4944680;28;20439;-86
2023/06/18 05:29:54;;;;;;;8.50;4.97;;;15.80;97.30;;;;;;4946382;28;20213;-84
2023/06/18 05:32:20;;;;;;;10.40;4.47;;;15.80;97.30;;;;;;4955425;29;20430;-81
2023/06/18 05:34:45;;;;;;;5.13;3.40;;;15.90;97.30;;;;;;4954637;29;20446;-83
2023/06/18 05:37:11;;;;;;;8.10;4.97;;;15.90;97.30;;;;;;4954858;28;20210;-84
2023/06/18 05:39:37;;;;;;;10.97;5.70;;;15.90;97.30;;;;;;4954692;29;20677;-84
2023/06/18 05:42:03;;;;;;;9.53;5.67;;;16.00;97.30;;;;;;4948029;29;20210;-86
2023/06/18 05:44:28;;;;;;;9.93;5.63;;;16.00;97.30;;;;;;4955695;29;20431;-86
2023/06/18 05:46:54;;;;;;;12.30;6.00;;;16.10;97.30;;;;;;4954341;28;20932;-85
2023/06/18 05:49:19;;;;;;;3.70;3.50;;;16.20;97.30;;;;;;4988125;23;20235;-82
2023/06/18 05:51:45;;;;;;;6.80;4.03;;;16.20;97.30;;;;;;4954810;29;20178;-81
2023/06/18 05:54:10;;;;;;;9.60;7.23;;;16.30;97.30;;;;;;4954966;29;20175;-83
2023/06/18 05:56:36;;;;;;;5.37;4.00;;;16.30;97.30;;;;;;4955197;29;20183;-83
2023/06/18 05:59:01;;;;;;;5.00;4.00;;;16.40;97.30;;;;;;4956503;29;20290;-83
2023/06/18 06:01:27;;;;;;;8.70;5.40;;;16.50;97.30;;;;;;4955147;29;20179;-83
2023/06/18 06:03:52;;;;;;;6.67;5.07;;;16.50;97.30;;;;;;4955629;28;20218;-80
2023/06/18 06:06:18;;;;;;;8.20;6.10;;;16.60;97.30;;;;;;4953703;29;20583;-84
2023/06/18 06:08:43;;;;;;;8.20;6.00;;;16.70;97.30;;;;;;4953576;28;20455;-81
2023/06/18 06:11:09;;;;;;;5.10;4.80;;;16.80;97.30;;;;;;4956205;29;20661;-83
2023/06/18 06:13:34;;;;;;;7.57;5.07;;;16.90;97.30;;;;;;4955383;28;20459;-80
2023/06/18 06:16:00;;;;;;;11.60;4.30;;;17.00;97.30;;;;;;4955869;28;20179;-84
2023/06/18 06:18:25;;;;;;;12.13;6.10;;;17.10;97.30;;;;;;4957392;28;20207;-81
2023/06/18 06:20:51;;;;;;;6.50;4.60;;;17.20;97.30;;;;;;4956031;29;20584;-82
2023/06/18 06:23:16;;;;;;;3.90;3.70;;;17.30;97.30;;;;;;4955888;29;20222;-84
2023/06/18 06:25:42;;;;;;;7.90;4.90;;;17.40;97.30;;;;;;4955198;29;20176;-83
2023/06/18 06:28:08;;;;;;;6.50;5.13;;;17.40;97.30;;;;;;4955857;28;20210;-80
2023/06/18 06:30:33;;;;;;;7.63;3.60;;;17.50;97.30;;;;;;4954512;29;20175;-85
2023/06/18 06:32:58;;;;;;;5.47;4.03;;;17.60;97.30;;;;;;4955703;29;20175;-85
2023/06/18 06:35:24;;;;;;;14.57;5.27;;;17.70;97.30;;;;;;4955177;29;20197;-81
2023/06/18 06:37:50;;;;;;;4.93;3.60;;;17.80;97.30;;;;;;4951867;28;20467;-83
2023/06/18 06:40:16;;;;;;;6.10;3.70;;;17.90;97.30;;;;;;4951940;28;20645;-83
2023/06/18 06:42:42;;;;;;;9.40;6.20;;;18.00;97.30;;;;;;4953328;29;20458;-82
2023/06/18 06:45:08;;;;;;;5.73;4.43;;;18.00;97.30;;;;;;4949398;29;20239;-80
2023/06/18 06:47:33;;;;;;;6.83;4.53;;;18.10;97.30;;;;;;4943146;29;20226;-85
2023/06/18 06:49:59;;;;;;;6.17;4.10;;;18.10;97.30;;;;;;4955401;28;20435;-82
2023/06/18 06:52:24;;;;;;;9.40;5.47;;;18.20;97.30;;;;;;4954878;29;20191;-80
2023/06/18 06:54:51;;;;;;;4.33;4.00;;;18.30;97.30;;;;;;4956278;28;20190;-83
2023/06/18 06:57:16;;;;;;;3.53;3.33;;;18.40;97.30;;;;;;4953404;29;20300;-83
2023/06/18 06:59:42;;;;;;;4.33;4.07;;;18.50;97.30;;;;;;4955245;29;20985;-82
2023/06/18 07:02:07;;;;;;;14.60;6.90;;;18.60;97.30;;;;;;4955581;29;20199;-83
2023/06/18 07:04:33;;;;;;;5.30;3.60;;;18.70;97.30;;;;;;4956268;28;20773;-85
2023/06/18 07:06:58;;;;;;;6.80;5.53;;;18.80;97.30;;;;;;4946940;29;20262;-82
2023/06/18 07:09:23;;;;;;;8.10;5.07;;;18.90;97.30;;;;;;4956174;28;20222;-83
2023/06/18 07:11:49;;;;;;;5.00;4.00;;;19.10;97.30;;;;;;4954547;29;20186;-83
2023/06/18 07:14:15;;;;;;;3.70;3.27;;;19.20;97.30;;;;;;4954692;29;20187;-82
2023/06/18 07:16:40;;;;;;;4.53;3.70;;;19.30;97.30;;;;;;4946709;29;20255;-83
2023/06/18 07:19:06;;;;;;;5.63;4.53;;;19.40;97.30;;;;;;4952684;29;20442;-81
2023/06/18 07:21:31;;;;;;;5.30;3.20;;;19.50;97.30;;;;;;4953619;28;20707;-80
2023/06/18 07:23:57;;;;;;;10.27;4.53;;;19.60;97.30;;;;;;4952555;29;20226;-85
2023/06/18 07:26:22;;;;;;;8.27;4.60;;;19.70;97.30;;;;;;4952411;29;20172;-82
2023/06/18 07:28:48;;;;;;;5.93;4.37;;;19.80;97.30;;;;;;4952894;28;20223;-80
2023/06/18 07:31:13;;;;;;;6.37;4.10;;;19.80;97.30;;;;;;4954411;29;20186;-81
2023/06/18 07:33:39;;;;;;;4.03;3.13;;;19.90;97.30;;;;;;4947438;29;20191;-85
2023/06/18 07:36:05;;;;;;;9.17;3.90;;;20.00;97.30;;;;;;4948002;29;20529;-83
2023/06/18 07:38:30;;;;;;;4.50;3.77;;;20.10;97.30;;;;;;4946190;29;20581;-85
2023/06/18 07:40:56;;;;;;;7.50;4.47;;;20.20;97.30;;;;;;4953088;29;20654;-85
2023/06/18 07:43:21;;;;;;;4.37;3.27;;;20.20;97.30;;;;;;4950180;29;20450;-84
2023/06/18 07:45:47;;;;;;;4.70;3.10;;;20.30;97.30;;;;;;4946491;29;20183;-83
2023/06/18 07:48:12;;;;;;;6.00;3.27;;;20.40;97.30;;;;;;4946968;29;20227;-86
2023/06/18 07:50:38;;;;;;;6.60;4.60;;;20.50;97.30;;;;;;4952934;29;20184;-84
2023/06/18 07:53:04;;;;;;;8.70;4.40;;;20.60;97.30;;;;;;4956866;28;20176;-83
2023/06/18 07:55:29;;;;;;;2.70;2.50;;;20.70;97.30;;;;;;4951515;29;20953;-85
2023/06/18 07:57:55;;;;;;;5.07;3.00;;;20.80;96.90;;;;;;4952204;28;20214;-84
2023/06/18 08:00:21;;;;;;;9.80;4.50;;;20.90;96.30;;;;;;4952369;29;20206;-84
2023/06/18 08:02:47;;;;;;;7.13;3.30;;;21.00;95.80;;;;;;4952448;28;20505;-85
2023/06/18 08:05:13;;;;;;;3.37;2.60;;;21.10;95.80;;;;;;4952841;28;20191;-83
2023/06/18 08:07:39;;;;;;;3.47;2.63;;;21.20;94.30;;;;;;4953000;28;20178;-83
2023/06/18 08:10:05;;;;;;;4.27;2.70;;;21.30;93.90;;;;;;4952718;29;20317;-85
2023/06/18 08:12:30;;;;;;;4.53;2.73;;;21.40;92.80;;;;;;4952197;28;20443;-80
2023/06/18 08:14:56;;;;;;;3.97;2.93;;;21.50;92.50;;;;;;4953315;28;20449;-82
2023/06/18 08:17:21;;;;;;;5.80;4.50;;;21.50;92.30;;;;;;4954343;29;20183;-81
2023/06/18 08:19:47;;;;;;;6.37;3.83;;;21.60;92.50;;;;;;4953142;28;20194;-83
2023/06/18 08:22:15;;;;;;;6.83;3.20;;;21.60;91.90;;;;;;4948708;29;20190;-80
2023/06/18 08:24:41;;;;;;;8.00;3.10;;;21.70;92.60;;;;;;4952345;29;20426;-86
2023/06/18 08:27:07;;;;;;;5.27;3.63;;;21.80;92.80;;;;;;4953519;29;21013;-84
2023/06/18 08:29:33;;;;;;;3.57;3.23;;;21.90;92.70;;;;;;4953815;29;20957;-83
2023/06/18 08:32:04;;;;;;;4.17;3.80;;;22.00;92.80;;;;;;4954436;29;20486;-85
2023/06/18 08:34:33;;;;;;;6.67;3.43;;;22.10;92.80;;;;;;4955116;29;20171;-83
2023/06/18 08:36:59;;;;;;;4.40;3.60;;;22.20;92.10;;;;;;4953963;29;20418;-84
2023/06/18 08:39:26;;;;;;;6.57;3.70;;;22.20;91.10;;;;;;4954172;29;20458;-82
2023/06/18 08:41:52;;;;;;;3.13;3.00;;;22.30;90.50;;;;;;4953737;28;20530;-85
2023/06/18 08:44:21;;;;;;;3.33;3.13;;;22.30;89.90;;;;;;4953058;29;20455;-81
2023/06/18 08:46:49;;;;;;;5.60;3.87;;;22.30;90.00;;;;;;4946472;28;20431;-86
2023/06/18 08:49:15;;;;;;;6.00;3.60;;;22.40;89.30;;;;;;4946856;29;20450;-84
2023/06/18 08:51:44;;;;;;;4.47;4.17;;;22.40;89.40;;;;;;4944855;29;20438;-85
2023/06/18 08:54:19;;;;;;;3.77;3.23;;;22.40;89.30;;;;;;4946833;29;20856;-91
2023/06/18 08:56:48;;;;;;;3.83;3.67;;;22.50;89.50;;;;;;4945373;29;20418;-86
2023/06/18 08:59:14;;;;;;;4.47;3.30;;;22.60;89.50;;;;;;4946563;28;20442;-87
2023/06/18 09:01:43;;;;;;;5.70;4.20;;;22.70;88.90;;;;;;4948735;29;20873;-86
2023/06/18 09:04:09;;;;;;;7.77;3.97;;;22.80;89.00;;;;;;4946872;28;20458;-85
2023/06/18 09:06:35;;;;;;;3.00;2.47;;;22.90;88.40;;;;;;4945947;29;21130;-83
2023/06/18 09:09:01;;;;;;;4.53;2.80;;;23.00;87.70;;;;;;4944278;28;20445;-82
2023/06/18 09:11:27;;;;;;;3.03;2.93;;;23.00;88.20;;;;;;4947773;29;20190;-84
2023/06/18 09:13:53;;;;;;;2.57;2.37;;;23.10;87.90;;;;;;4943334;28;20768;-86
2023/06/18 09:16:19;;;;;;;3.50;2.83;;;23.20;87.20;;;;;;4946333;29;20418;-83
2023/06/18 09:18:45;;;;;;;6.33;4.40;;;23.30;86.40;;;;;;4941720;29;20513;-84
2023/06/18 09:21:32;;;;;;;10.07;4.63;;;23.30;86.10;;;;;;4958618;28;20466;-86
2023/06/18 09:23:59;;;;;;;4.87;3.67;;;23.30;86.10;;;;;;4944267;29;20550;-81
2023/06/18 09:26:25;;;;;;;5.10;2.40;;;23.20;86.70;;;;;;4944480;28;20499;-83
2023/06/18 09:28:51;;;;;;;29.67;3.03;;;23.20;87.30;;;;;;4944599;28;20828;-83
2023/06/18 09:31:24;;;;;;;6.30;4.00;;;23.20;85.80;;;;;;4943144;28;20427;-87
2023/06/18 09:33:50;;;;;;;6.90;3.87;;;23.30;86.20;;;;;;4943556;29;20190;-85
2023/06/18 09:36:15;;;;;;;6.27;3.50;;;23.50;84.30;;;;;;4940923;29;20419;-82
2023/06/18 09:38:42;;;;;;;5.07;3.03;;;23.60;84.90;;;;;;4943786;28;20784;-85
2023/06/18 09:41:17;;;;;;;4.13;3.17;;;23.70;85.10;;;;;;4945721;29;20180;-84
2023/06/18 09:43:47;;;;;;;5.93;4.33;;;23.80;84.40;;;;;;4943503;29;20466;-85
2023/06/18 09:46:14;;;;;;;2.83;2.40;;;24.00;84.70;;;;;;4959588;28;20451;-85
2023/06/18 09:48:45;;;;;;;3.47;2.97;;;24.10;83.90;;;;;;4941881;28;20474;-84
2023/06/18 09:51:13;;;;;;;3.17;2.97;;;24.20;82.50;;;;;;4941405;29;20952;-83
2023/06/18 09:53:38;;;;;;;3.70;2.50;;;24.20;82.80;;;;;;4943100;28;20493;-84
2023/06/18 09:56:14;;;;;;;3.27;2.10;;;24.20;83.10;;;;;;4945185;28;20905;-87
2023/06/18 09:58:46;;;;;;;5.77;3.90;;;24.10;83.20;;;;;;4944537;28;20726;-85
2023/06/18 10:01:11;;;;;;;2.90;2.73;;;24.10;83.70;;;;;;4942675;29;20411;-87
2023/06/18 10:03:38;;;;;;;4.90;3.97;;;24.00;84.00;;;;;;4942430;29;20509;-85
2023/06/18 10:06:24;;;;;;;5.30;3.77;;;24.00;83.90;;;;;;4948367;29;20176;-84
2023/06/18 10:08:52;;;;;;;5.83;2.60;;;24.10;83.50;;;;;;4946596;28;20427;-84
2023/06/18 10:11:19;;;;;;;7.70;3.47;;;24.20;81.40;;;;;;4942003;29;20862;-84
2023/06/18 10:13:55;;;;;;;3.17;3.00;;;24.30;81.40;;;;;;4944216;29;20446;-82
2023/06/18 10:16:21;;;;;;;1.87;1.77;;;24.50;81.80;;;;;;4945575;29;20426;-85
2023/06/18 10:19:11;;;;;;;6.10;2.70;;;24.60;81.50;;;;;;4945284;28;21008;-86
2023/06/18 10:21:54;;;;;;;3.87;2.80;;;24.80;80.70;;;;;;4941318;29;20251;-88
2023/06/18 10:24:23;;;;;;;4.63;3.57;;;24.90;80.50;;;;;;4942649;28;20469;-85
2023/06/18 10:26:51;;;;;;;4.63;3.20;;;24.90;80.70;;;;;;4947579;29;20423;-87
2023/06/18 10:29:17;;;;;;;4.67;3.50;;;24.90;80.80;;;;;;4942681;29;20455;-86
2023/06/18 10:31:44;;;;;;;5.83;3.40;;;24.90;81.10;;;;;;4945535;29;20404;-87
2023/06/18 10:34:12;;;;;;;5.17;3.50;;;24.90;81.50;;;;;;4938612;29;20933;-86
2023/06/18 10:36:38;;;;;;;2.90;2.47;;;24.80;81.70;;;;;;4943223;29;20418;-85
2023/06/18 10:39:05;;;;;;;2.77;2.20;;;24.80;81.30;;;;;;4945856;28;20986;-82
2023/06/18 10:41:30;;;;;;;6.27;3.37;;;24.70;81.10;;;;;;4941792;29;20445;-87
2023/06/18 10:43:56;;;;;;;3.20;2.53;;;24.70;81.70;;;;;;4941736;29;20454;-87
2023/06/18 10:46:22;;;;;;;8.73;3.30;;;24.80;81.90;;;;;;4940868;29;20798;-88
2023/06/18 10:49:14;;;;;;;4.73;3.07;;;25.00;81.10;;;;;;4940695;28;20348;-87
2023/06/18 10:51:41;;;;;;;2.73;2.37;;;25.20;79.20;;;;;;4939411;29;20431;-87
2023/06/18 10:54:23;;;;;;;6.63;4.17;;;25.30;79.00;;;;;;4942436;28;20565;-85
2023/06/18 10:56:58;;;;;;;3.90;2.33;;;25.40;78.30;;;;;;4944222;29;20933;-88
2023/06/18 10:59:45;;;;;;;2.30;2.13;;;25.40;77.50;;;;;;4946665;29;20457;-86
2023/06/18 11:02:14;;;;;;;2.80;2.60;;;25.50;78.90;;;;;;4941084;29;20509;-88
2023/06/18 11:04:40;;;;;;;3.97;2.93;;;25.70;76.90;;;;;;4938989;29;21095;-88
2023/06/18 11:07:12;;;;;;;7.50;2.80;;;25.80;77.20;;;;;;4939786;28;20954;-87
2023/06/18 11:09:51;;;;;;;2.20;2.00;;;25.90;77.30;;;;;;4941859;29;21392;-84
2023/06/18 11:12:18;;;;;;;5.70;3.53;;;26.00;77.40;;;;;;4944394;29;20509;-85
2023/06/18 11:15:19;;;;;;;2.10;1.93;;;26.10;77.10;;;;;;4943501;29;20422;-85
2023/06/18 11:17:49;;;;;;;4.40;3.33;;;26.10;77.00;;;;;;4940436;29;20454;-88
2023/06/18 11:20:17;;;;;;;17.17;3.90;;;26.10;76.30;;;;;;4942947;29;20423;-89
2023/06/18 11:22:42;;;;;;;3.87;2.90;;;26.10;77.30;;;;;;4945851;28;20609;-88
2023/06/18 11:25:11;;;;;;;3.73;2.77;;;26.20;77.20;;;;;;4945823;29;20431;-86
2023/06/18 11:27:45;;;;;;;3.47;3.27;;;26.40;77.00;;;;;;4946041;28;20246;-85
2023/06/18 11:30:17;;;;;;;5.83;2.93;;;26.50;75.70;;;;;;4947989;28;20461;-86
2023/06/18 11:32:42;;;;;;;3.40;2.63;;;26.40;75.60;;;;;;4944607;29;20415;-83
2023/06/18 11:35:09;;;;;;;4.20;3.00;;;26.30;75.30;;;;;;4943294;29;21459;-87
2023/06/18 11:37:37;;;;;;;5.07;2.77;;;26.20;76.20;;;;;;4945434;28;20269;-85
2023/06/18 11:40:05;;;;;;;3.43;2.67;;;26.20;77.00;;;;;;4946663;28;20448;-84
2023/06/18 11:42:31;;;;;;;5.40;2.77;;;26.30;77.10;;;;;;4948171;28;20547;-90
2023/06/18 11:45:04;;;;;;;4.00;2.77;;;26.30;75.50;;;;;;4945958;28;20520;-87
2023/06/18 11:47:31;;;;;;;5.20;2.90;;;26.40;76.60;;;;;;4947793;28;20179;-88
2023/06/18 11:49:57;;;;;;;6.40;3.93;;;26.40;75.70;;;;;;4945618;29;20957;-89
2023/06/18 11:52:25;;;;;;;3.10;2.70;;;26.30;75.30;;;;;;4941959;28;20431;-85
2023/06/18 11:54:53;;;;;;;4.23;3.57;;;26.30;75.70;;;;;;4944533;28;20430;-88
2023/06/18 11:57:21;;;;;;;2.73;2.53;;;26.30;75.80;;;;;;4938625;29;20822;-86
2023/06/18 11:59:51;;;;;;;4.17;3.27;;;26.30;76.50;;;;;;4944270;29;21086;-90
2023/06/18 12:02:19;;;;;;;3.23;2.63;;;26.40;75.90;;;;;;4943007;29;20420;-86
2023/06/18 12:04:45;;;;;;;2.90;2.70;;;26.50;75.20;;;;;;4944165;29;20447;-86
2023/06/18 12:07:18;;;;;;;3.43;2.63;;;26.60;75.70;;;;;;4945869;29;20451;-86
2023/06/18 12:09:45;;;;;;;7.17;3.77;;;26.80;75.80;;;;;;4944413;29;20250;-84
2023/06/18 12:12:49;;;;;;;3.87;2.50;;;26.90;74.70;;;;;;4945107;29;20411;-84
2023/06/18 12:15:22;;;;;;;4.13;2.90;;;27.00;73.80;;;;;;4944598;29;20426;-86
2023/06/18 12:18:01;;;;;;;3.03;2.33;;;27.10;74.00;;;;;;4946263;28;20443;-88
2023/06/18 12:20:28;;;;;;;3.10;2.43;;;27.10;74.70;;;;;;4944300;29;20430;-86
2023/06/18 12:22:55;;;;;;;4.87;2.20;;;27.20;74.60;;;;;;4943249;29;20468;-85
2023/06/18 12:25:23;;;;;;;4.20;2.53;;;27.40;73.70;;;;;;4942974;29;20422;-86
2023/06/18 12:27:50;;;;;;;5.00;3.10;;;27.40;73.80;;;;;;4947175;28;20438;-89
2023/06/18 12:30:16;;;;;;;2.60;2.43;;;27.60;73.90;;;;;;4946291;29;20844;-86
2023/06/18 12:32:59;;;;;;;2.43;2.23;;;27.60;73.30;;;;;;4946211;29;20947;-88
2023/06/18 12:35:25;;;;;;;4.13;3.13;;;27.70;72.80;;;;;;4948169;29;20353;-85
2023/06/18 12:37:50;;;;;;;3.60;2.10;;;27.70;72.60;;;;;;4943215;29;21053;-87
2023/06/18 12:40:24;;;;;;;3.87;2.97;;;27.80;72.90;;;;;;4949843;28;20188;-86
2023/06/18 12:42:50;;;;;;;3.50;2.43;;;27.80;72.40;;;;;;4947398;29;20214;-87
2023/06/18 12:45:22;;;;;;;2.90;2.50;;;27.90;72.00;;;;;;4948341;28;20434;-86
2023/06/18 12:47:48;;;;;;;4.43;2.90;;;27.90;71.20;;;;;;4949541;28;20732;-84